Time;durP1;ratioP1;P1;durP2;ratioP2;P2;SDS_P1;SDS_P2;PMS_P1;PMS_P2;Temp;Humidity;BMP_temperature;BMP_pressure;BME280_temperature;BME280_humidity;BME280_pressure;Samples;Min_cycle;Max_cycle;Signal;HPM_P1;HPM_P2
2021/03/25 00:01:16;;;;;;;32.73;22.10;;;6.80;99.90;;;;;;5110380;28;20445;-65
2021/03/25 00:03:45;;;;;;;40.27;23.53;;;6.80;99.90;;;;;;5109132;28;20722;-65
2021/03/25 00:06:10;;;;;;;33.93;22.83;;;6.70;99.90;;;;;;5110130;28;20743;-65
2021/03/25 00:08:36;;;;;;;33.30;22.83;;;6.70;99.90;;;;;;5110040;28;20383;-65
2021/03/25 00:11:02;;;;;;;28.73;21.10;;;6.70;99.90;;;;;;5110329;28;20168;-65
2021/03/25 00:13:28;;;;;;;30.83;22.63;;;6.60;99.90;;;;;;5112993;28;20175;-65
2021/03/25 00:15:54;;;;;;;30.93;21.90;;;6.60;99.90;;;;;;5130355;27;20397;-65
2021/03/25 00:18:20;;;;;;;31.00;21.70;;;6.60;99.90;;;;;;5128990;28;20231;-66
2021/03/25 00:20:46;;;;;;;33.23;21.90;;;6.60;99.90;;;;;;5130155;27;20202;-65
2021/03/25 00:23:12;;;;;;;33.50;24.07;;;6.60;99.90;;;;;;5130056;27;20402;-65
2021/03/25 00:25:40;;;;;;;33.73;22.37;;;6.60;99.90;;;;;;5128943;28;20403;-65
2021/03/25 00:28:08;;;;;;;36.03;25.40;;;6.50;99.90;;;;;;5130502;27;20400;-65
2021/03/25 00:30:33;;;;;;;31.60;22.00;;;6.50;99.90;;;;;;5129112;27;20450;-65
2021/03/25 00:33:02;;;;;;;30.43;22.37;;;6.50;99.90;;;;;;5117286;27;20421;-65
2021/03/25 00:35:29;;;;;;;32.07;23.47;;;6.50;99.90;;;;;;5115267;28;20246;-65
2021/03/25 00:37:55;;;;;;;30.90;22.47;;;6.40;99.90;;;;;;5116195;27;20403;-65
2021/03/25 00:40:21;;;;;;;34.43;22.60;;;6.40;99.90;;;;;;5115035;28;20437;-65
2021/03/25 00:42:47;;;;;;;31.60;21.47;;;6.40;99.90;;;;;;5116216;28;20396;-65
2021/03/25 00:45:21;;;;;;;30.50;22.90;;;6.40;99.90;;;;;;5115955;28;20205;-65
2021/03/25 00:47:47;;;;;;;34.03;22.63;;;6.30;99.90;;;;;;5114098;28;20499;-65
2021/03/25 00:50:20;;;;;;;30.50;21.30;;;6.30;99.90;;;;;;5114865;28;20920;-65
2021/03/25 00:52:45;;;;;;;37.97;24.17;;;6.30;99.90;;;;;;5115885;28;20155;-65
2021/03/25 00:55:11;;;;;;;32.63;22.50;;;6.30;99.90;;;;;;5116317;28;20399;-65
2021/03/25 00:57:37;;;;;;;32.23;23.67;;;6.30;99.90;;;;;;5115802;28;20251;-65
2021/03/25 01:00:04;;;;;;;30.67;21.47;;;6.20;99.90;;;;;;5115816;27;21009;-65
2021/03/25 01:02:30;;;;;;;36.03;22.50;;;6.20;99.90;;;;;;5115834;28;20172;-65
2021/03/25 01:04:55;;;;;;;34.90;23.17;;;6.20;99.90;;;;;;5115026;28;20412;-65
2021/03/25 01:07:26;;;;;;;30.23;22.50;;;6.20;99.90;;;;;;5096216;28;20168;-65
2021/03/25 01:09:52;;;;;;;35.10;22.33;;;6.20;99.90;;;;;;5095377;28;20186;-65
2021/03/25 01:12:18;;;;;;;32.63;23.63;;;6.10;99.90;;;;;;5095256;28;20453;-65
2021/03/25 01:14:43;;;;;;;34.80;23.20;;;6.10;99.90;;;;;;5095118;28;20402;-65
2021/03/25 01:17:09;;;;;;;37.20;23.70;;;6.10;99.90;;;;;;5095153;28;20390;-65
2021/03/25 01:19:34;;;;;;;36.60;25.30;;;6.10;99.90;;;;;;5094756;28;20161;-65
2021/03/25 01:22:01;;;;;;;38.43;22.57;;;6.10;99.90;;;;;;5095718;28;20170;-65
2021/03/25 01:24:27;;;;;;;37.33;22.50;;;6.00;99.90;;;;;;5094937;28;20525;-65
2021/03/25 01:26:54;;;;;;;32.93;23.70;;;6.00;99.90;;;;;;5094794;28;20399;-65
2021/03/25 01:29:20;;;;;;;35.30;22.70;;;6.00;99.90;;;;;;5095053;28;20393;-65
2021/03/25 01:31:46;;;;;;;32.70;23.10;;;6.00;99.90;;;;;;5095021;28;20389;-65
2021/03/25 01:34:15;;;;;;;37.70;22.60;;;6.00;99.90;;;;;;5094906;28;20391;-65
2021/03/25 01:36:41;;;;;;;28.73;21.57;;;5.90;99.90;;;;;;5094855;28;20757;-65
2021/03/25 01:39:07;;;;;;;29.90;23.30;;;5.90;99.90;;;;;;5095232;28;20414;-65
2021/03/25 01:41:34;;;;;;;32.10;23.80;;;5.90;99.90;;;;;;5094472;28;21062;-65
2021/03/25 01:44:00;;;;;;;35.67;22.50;;;5.90;99.90;;;;;;5093503;28;20182;-65
2021/03/25 01:46:30;;;;;;;34.63;25.27;;;5.90;99.90;;;;;;5094546;28;20430;-65
2021/03/25 01:48:59;;;;;;;35.17;23.20;;;5.90;99.90;;;;;;5093436;28;20399;-65
2021/03/25 01:59:56;;;;;;;32.07;23.67;;;5.80;99.90;;;;;;5131459;27;20565;-65
2021/03/25 02:02:33;;;;;;;37.97;23.13;;;5.70;99.90;;;;;;5131594;27;20393;-65
2021/03/25 02:05:22;;;;;;;32.60;24.63;;;5.70;99.90;;;;;;5131210;27;20441;-65
2021/03/25 02:11:01;;;;;;;32.20;23.63;;;5.60;99.90;;;;;;5110794;27;20568;-66
2021/03/25 02:13:35;;;;;;;31.20;22.77;;;5.60;99.90;;;;;;5098815;28;20428;-66
2021/03/25 02:19:02;;;;;;;32.60;22.83;;;5.60;99.90;;;;;;5110717;27;20993;-64
2021/03/25 02:22:05;;;;;;;36.77;23.10;;;5.60;99.90;;;;;;5113213;28;20401;-66
2021/03/25 02:32:53;;;;;;;33.77;23.10;;;5.50;99.90;;;;;;5131366;27;20549;-65
2021/03/25 02:35:27;;;;;;;37.87;23.77;;;5.50;99.90;;;;;;5131416;27;20479;-65
2021/03/25 02:38:01;;;;;;;33.23;22.87;;;5.50;99.90;;;;;;5131241;27;20417;-65
2021/03/25 02:40:34;;;;;;;47.87;26.93;;;5.50;99.90;;;;;;5131162;27;20382;-65
2021/03/25 02:43:07;;;;;;;35.10;25.20;;;5.50;99.90;;;;;;5130474;28;20471;-65
2021/03/25 02:45:39;;;;;;;43.63;24.97;;;5.50;99.90;;;;;;5131055;27;20413;-65
2021/03/25 02:48:10;;;;;;;37.10;23.80;;;5.50;99.90;;;;;;5114270;27;20413;-65
2021/03/25 02:50:43;;;;;;;35.47;23.33;;;5.50;99.90;;;;;;5110742;28;20421;-65
2021/03/25 02:53:18;;;;;;;36.77;26.10;;;5.50;99.90;;;;;;5110529;28;20417;-65
2021/03/25 02:55:43;;;;;;;36.10;24.40;;;5.50;99.90;;;;;;5110654;28;20393;-65
2021/03/25 02:58:16;;;;;;;34.63;24.23;;;5.50;99.90;;;;;;5110497;28;20403;-65
2021/03/25 03:00:47;;;;;;;32.20;23.73;;;5.50;99.90;;;;;;5110284;28;20395;-65
2021/03/25 03:03:20;;;;;;;31.80;23.20;;;5.50;99.90;;;;;;5111058;28;20854;-65
2021/03/25 03:05:49;;;;;;;41.60;26.97;;;5.50;99.90;;;;;;5110152;28;20469;-65
2021/03/25 03:08:20;;;;;;;33.43;25.50;;;5.50;99.90;;;;;;5108938;28;20400;-65
2021/03/25 03:11:08;;;;;;;41.50;25.80;;;5.50;99.90;;;;;;5110494;28;21078;-65
2021/03/25 03:13:40;;;;;;;35.20;24.93;;;5.50;99.90;;;;;;5108943;28;20410;-65
2021/03/25 03:16:12;;;;;;;38.10;25.67;;;5.50;99.90;;;;;;5110073;28;20408;-65
2021/03/25 03:18:51;;;;;;;34.77;24.23;;;5.50;99.90;;;;;;5108803;28;20534;-66
2021/03/25 03:21:23;;;;;;;39.47;25.93;;;5.50;99.90;;;;;;5119429;28;20406;-65
2021/03/25 03:23:49;;;;;;;36.77;27.00;;;5.50;99.90;;;;;;5130496;27;20406;-66
2021/03/25 03:26:24;;;;;;;35.77;24.07;;;5.50;99.90;;;;;;5130348;27;20830;-65
2021/03/25 03:28:55;;;;;;;33.20;26.47;;;5.50;99.90;;;;;;5129141;28;20396;-65
2021/03/25 03:31:29;;;;;;;41.10;24.37;;;5.50;99.90;;;;;;5130156;27;20455;-65
2021/03/25 03:34:02;;;;;;;38.43;24.90;;;5.50;99.90;;;;;;5129375;28;20408;-65
2021/03/25 03:36:29;;;;;;;35.13;24.67;;;5.50;99.90;;;;;;5128965;28;20530;-65
2021/03/25 03:39:08;;;;;;;38.87;25.87;;;5.50;99.90;;;;;;5129374;27;20480;-65
2021/03/25 03:41:45;;;;;;;39.40;23.90;;;5.50;99.90;;;;;;5130168;27;20394;-65
2021/03/25 03:44:15;;;;;;;33.43;25.20;;;5.50;99.90;;;;;;5116320;27;20396;-65
2021/03/25 03:46:42;;;;;;;38.90;26.40;;;5.60;99.90;;;;;;5116959;28;20428;-66
2021/03/25 03:49:12;;;;;;;43.93;24.40;;;5.60;99.90;;;;;;5116279;28;20867;-66
2021/03/25 03:54:22;;;;;;;33.73;24.83;;;5.60;99.90;;;;;;5129055;27;20514;-65
2021/03/25 03:57:17;;;;;;;38.23;25.80;;;5.50;99.90;;;;;;5110981;28;20881;-65
2021/03/25 04:02:43;;;;;;;38.73;27.70;;;5.50;99.90;;;;;;5131442;27;20511;-65
2021/03/25 04:05:20;;;;;;;38.50;25.33;;;5.50;99.90;;;;;;5130231;28;20411;-64
2021/03/25 04:07:51;;;;;;;38.10;23.67;;;5.40;99.90;;;;;;5131230;27;20438;-64
2021/03/25 04:12:56;;;;;;;35.93;23.93;;;5.40;99.90;;;;;;5075454;27;20521;-65
2021/03/25 04:15:25;;;;;;;40.00;24.87;;;5.40;99.90;;;;;;5070360;28;20425;-65
2021/03/25 04:18:10;;;;;;;34.53;25.53;;;5.30;99.90;;;;;;5070426;28;20382;-65
2021/03/25 04:20:42;;;;;;;41.13;26.53;;;5.30;99.90;;;;;;5070346;28;20390;-65
2021/03/25 04:23:12;;;;;;;37.40;25.13;;;5.30;99.90;;;;;;5070302;28;20469;-65
2021/03/25 04:25:42;;;;;;;44.70;26.57;;;5.30;99.90;;;;;;5070102;28;20391;-65
2021/03/25 04:28:14;;;;;;;33.03;24.03;;;5.30;99.90;;;;;;5069970;28;20383;-65
2021/03/25 04:30:44;;;;;;;34.27;24.37;;;5.30;99.90;;;;;;5069781;28;20760;-66
2021/03/25 04:33:13;;;;;;;37.30;24.73;;;5.40;99.90;;;;;;5069193;28;20397;-65
2021/03/25 04:35:42;;;;;;;33.27;24.57;;;5.40;99.90;;;;;;5070094;28;20790;-65
2021/03/25 04:38:10;;;;;;;35.40;24.83;;;5.40;99.90;;;;;;5069964;28;20401;-65
2021/03/25 04:40:37;;;;;;;39.77;25.97;;;5.50;99.90;;;;;;5068534;28;20402;-65
2021/03/25 04:43:03;;;;;;;37.43;24.80;;;5.50;99.90;;;;;;5068374;28;20882;-66
2021/03/25 04:45:49;;;;;;;38.23;23.63;;;5.60;99.90;;;;;;5069468;28;20470;-65
2021/03/25 04:48:18;;;;;;;35.60;24.47;;;5.60;99.90;;;;;;5069818;28;20399;-65
2021/03/25 04:51:06;;;;;;;38.23;25.07;;;5.60;99.90;;;;;;5068251;28;20765;-65
2021/03/25 04:53:36;;;;;;;36.50;25.90;;;5.60;99.90;;;;;;5068742;28;20877;-65
2021/03/25 04:56:06;;;;;;;33.60;23.13;;;5.60;99.90;;;;;;5069380;28;20400;-65
2021/03/25 04:58:35;;;;;;;32.87;23.47;;;5.60;99.90;;;;;;5068203;28;20404;-66
2021/03/25 05:01:16;;;;;;;34.33;24.30;;;5.60;99.90;;;;;;5068360;28;20403;-66
2021/03/25 05:03:42;;;;;;;36.30;25.40;;;5.60;99.90;;;;;;5069054;28;20476;-65
2021/03/25 05:06:18;;;;;;;32.87;23.90;;;5.60;99.90;;;;;;5069201;28;20456;-65
2021/03/25 05:08:45;;;;;;;46.40;27.33;;;5.60;99.90;;;;;;5069376;28;20168;-66
2021/03/25 05:11:14;;;;;;;37.80;27.23;;;5.60;99.90;;;;;;5069027;28;20473;-65
2021/03/25 05:13:43;;;;;;;37.73;26.00;;;5.70;99.90;;;;;;5067772;28;20411;-65
2021/03/25 05:16:34;;;;;;;39.20;24.60;;;5.70;99.90;;;;;;5068624;28;20814;-65
2021/03/25 05:24:26;;;;;;;40.07;24.80;;;5.70;99.90;;;;;;5131372;27;20500;-65
2021/03/25 05:27:00;;;;;;;37.10;25.20;;;5.80;99.90;;;;;;5131386;27;20478;-64
2021/03/25 05:29:27;;;;;;;36.70;24.87;;;5.80;99.90;;;;;;5131219;27;20390;-64
2021/03/25 05:31:54;;;;;;;37.50;24.93;;;5.90;99.90;;;;;;5131481;27;20393;-64
2021/03/25 05:34:20;;;;;;;37.87;25.33;;;5.90;99.90;;;;;;5131333;27;20384;-65
2021/03/25 05:36:48;;;;;;;36.13;25.23;;;6.00;99.90;;;;;;5130484;27;20747;-66
2021/03/25 05:39:13;;;;;;;32.73;23.50;;;6.00;99.90;;;;;;5129940;28;20383;-65
2021/03/25 05:44:58;;;;;;;46.37;25.00;;;6.10;99.90;;;;;;5131262;27;20519;-65
2021/03/25 05:47:50;;;;;;;38.53;25.23;;;6.20;99.90;;;;;;5130306;28;20858;-65
2021/03/25 05:53:33;;;;;;;35.30;24.73;;;6.20;99.90;;;;;;5090803;28;20519;-66
2021/03/25 05:58:49;;;;;;;33.47;24.70;;;6.30;99.90;;;;;;5131339;27;20537;-66
2021/03/25 06:01:41;;;;;;;37.80;25.20;;;6.40;99.90;;;;;;5128862;28;20395;-66
2021/03/25 06:15:20;;;;;;;35.67;24.30;;;6.50;99.90;;;;;;5119444;27;21077;-66
2021/03/25 06:23:23;;;;;;;40.07;25.77;;;6.80;99.90;;;;;;5131469;27;20516;-65
2021/03/25 06:26:28;;;;;;;41.40;26.80;;;7.00;99.90;;;;;;5122768;27;20449;-65
2021/03/25 06:29:02;;;;;;;40.37;27.00;;;7.10;99.90;;;;;;5112839;28;20422;-65
2021/03/25 06:31:51;;;;;;;38.40;25.90;;;7.20;99.90;;;;;;5110821;28;20403;-65
2021/03/25 06:40:02;;;;;;;40.00;27.23;;;7.30;99.90;;;;;;5117782;27;20541;-65
2021/03/25 06:42:42;;;;;;;37.10;27.50;;;7.40;99.90;;;;;;5109666;28;20420;-65
2021/03/25 06:45:30;;;;;;;35.63;26.50;;;7.50;99.90;;;;;;5079660;28;20503;-65
2021/03/25 06:48:01;;;;;;;39.13;28.57;;;7.60;99.90;;;;;;5094228;28;20537;-65
2021/03/25 06:50:38;;;;;;;38.70;28.20;;;7.70;99.90;;;;;;5109500;28;20476;-65
2021/03/25 06:53:31;;;;;;;36.63;26.20;;;7.70;99.90;;;;;;5102838;28;20429;-65
2021/03/25 06:56:04;;;;;;;41.03;27.57;;;7.80;99.90;;;;;;5092551;28;20514;-65
2021/03/25 06:58:35;;;;;;;41.47;28.67;;;7.90;99.90;;;;;;5109217;28;20445;-65
2021/03/25 07:01:08;;;;;;;37.50;26.83;;;7.90;99.90;;;;;;5110470;28;20518;-65
2021/03/25 07:03:36;;;;;;;39.40;27.50;;;8.00;99.90;;;;;;5089760;28;20412;-65
2021/03/25 07:06:02;;;;;;;45.43;28.70;;;8.10;99.90;;;;;;5088658;28;20971;-65
2021/03/25 07:08:31;;;;;;;33.63;26.50;;;8.10;99.90;;;;;;5105079;28;20447;-65
2021/03/25 07:11:02;;;;;;;34.53;26.57;;;8.10;99.90;;;;;;5108818;28;20418;-65
2021/03/25 07:13:48;;;;;;;34.83;25.97;;;8.20;99.90;;;;;;5109040;28;20407;-65
2021/03/25 07:16:14;;;;;;;35.43;24.77;;;8.20;99.90;;;;;;5110064;28;20393;-65
2021/03/25 07:21:40;;;;;;;39.87;26.10;;;8.30;99.90;;;;;;5098973;27;20514;-66
2021/03/25 07:24:28;;;;;;;40.17;27.83;;;8.40;99.90;;;;;;5090509;28;20877;-66
2021/03/25 07:27:01;;;;;;;36.03;24.93;;;8.50;99.90;;;;;;5092497;28;20481;-66
2021/03/25 07:29:33;;;;;;;34.43;25.67;;;8.50;99.90;;;;;;5088990;28;20511;-66
2021/03/25 07:34:43;;;;;;;39.60;25.83;;;8.70;99.90;;;;;;5066780;28;20515;-66
2021/03/25 07:37:11;;;;;;;36.53;26.47;;;8.90;99.90;;;;;;5055345;28;20414;-66
2021/03/25 07:39:49;;;;;;;34.67;23.13;;;9.10;99.90;;;;;;5061413;28;20407;-66
2021/03/25 07:42:37;;;;;;;32.10;21.63;;;9.30;99.90;;;;;;5053298;28;20411;-66
2021/03/25 07:45:32;;;;;;;31.63;22.10;;;9.50;99.90;;;;;;5045836;28;20831;-66
2021/03/25 07:50:51;;;;;;;38.73;22.17;;;10.00;99.90;;;;;;5131519;27;20509;-67
2021/03/25 07:56:16;;;;;;;31.80;21.30;;;10.40;99.90;;;;;;5131313;27;21014;-66
2021/03/25 07:58:45;;;;;;;47.23;23.30;;;10.70;99.90;;;;;;5089427;28;20401;-66
2021/03/25 08:01:16;;;;;;;41.10;23.60;;;10.90;99.90;;;;;;5103357;28;20414;-65
2021/03/25 08:03:45;;;;;;;38.50;22.93;;;11.10;99.90;;;;;;5109523;28;20430;-66
2021/03/25 08:06:18;;;;;;;32.73;22.30;;;11.10;99.90;;;;;;5109755;28;20461;-66
2021/03/25 08:08:44;;;;;;;35.53;23.87;;;11.20;99.90;;;;;;5113843;28;20403;-66
2021/03/25 08:11:15;;;;;;;29.83;21.83;;;11.30;99.90;;;;;;5113048;28;20747;-66
2021/03/25 08:13:52;;;;;;;36.90;24.17;;;11.30;99.90;;;;;;5109309;28;20500;-66
2021/03/25 08:16:19;;;;;;;36.27;24.80;;;11.40;99.90;;;;;;5109109;28;20401;-66
2021/03/25 08:32:57;;;;;;;41.60;30.60;;;11.70;99.90;;;;;;5129351;27;20584;-66
2021/03/25 08:38:28;;;;;;;40.27;29.10;;;12.20;99.90;;;;;;5079770;27;20556;-65
2021/03/25 08:40:59;;;;;;;56.17;33.80;;;12.30;99.90;;;;;;5061876;28;20465;-65
2021/03/25 08:43:33;;;;;;;39.53;30.30;;;12.50;99.90;;;;;;5065751;28;20967;-65
2021/03/25 08:46:11;;;;;;;43.40;30.70;;;12.50;99.90;;;;;;5064754;28;20437;-65
2021/03/25 08:48:51;;;;;;;49.83;32.87;;;12.60;99.90;;;;;;5070025;28;20414;-66
2021/03/25 08:51:23;;;;;;;42.53;30.47;;;12.70;99.90;;;;;;5048567;28;20475;-65
2021/03/25 08:59:14;;;;;;;40.03;28.73;;;12.80;99.90;;;;;;5110896;27;20513;-66
2021/03/25 09:01:51;;;;;;;44.07;29.87;;;13.30;99.90;;;;;;5106591;28;20410;-66
2021/03/25 09:04:19;;;;;;;44.70;29.13;;;13.30;99.90;;;;;;5093506;28;20403;-66
2021/03/25 09:06:48;;;;;;;46.73;32.10;;;13.40;99.90;;;;;;5107957;28;20751;-66
2021/03/25 09:09:44;;;;;;;47.30;34.13;;;13.40;99.90;;;;;;5097488;28;20404;-66
2021/03/25 09:12:13;;;;;;;49.33;33.03;;;13.50;99.90;;;;;;5089475;28;20431;-65
2021/03/25 09:14:38;;;;;;;55.00;34.43;;;13.60;99.90;;;;;;5106700;28;20963;-66
2021/03/25 09:17:06;;;;;;;44.90;31.73;;;13.70;99.90;;;;;;5110379;28;20444;-66
2021/03/25 09:19:41;;;;;;;46.20;32.27;;;13.80;99.90;;;;;;5110260;28;20176;-66
2021/03/25 09:22:07;;;;;;;51.67;33.70;;;13.90;99.90;;;;;;5110618;28;20443;-66
2021/03/25 09:24:33;;;;;;;48.67;36.53;;;14.00;99.90;;;;;;5110612;28;20393;-66
2021/03/25 09:27:04;;;;;;;55.47;35.77;;;14.10;99.90;;;;;;5093795;28;20831;-66
2021/03/25 09:29:33;;;;;;;47.60;34.83;;;14.20;99.90;;;;;;5089936;28;20523;-66
2021/03/25 09:34:51;;;;;;;50.17;37.17;;;14.30;99.90;;;;;;5086613;28;20915;-65
2021/03/25 09:37:23;;;;;;;46.90;35.90;;;14.30;99.90;;;;;;5074578;28;20411;-65
2021/03/25 09:40:05;;;;;;;48.70;35.23;;;14.30;99.90;;;;;;5056268;28;20454;-65
2021/03/25 09:42:31;;;;;;;49.10;33.50;;;14.30;99.90;;;;;;5082036;28;20430;-65
2021/03/25 09:44:56;;;;;;;51.47;33.70;;;14.30;99.90;;;;;;5080514;28;20415;-65
2021/03/25 09:47:30;;;;;;;52.87;34.07;;;14.50;99.90;;;;;;5085122;28;20202;-66
2021/03/25 09:50:13;;;;;;;50.37;33.03;;;14.70;99.90;;;;;;5080515;28;20515;-65
2021/03/25 09:52:43;;;;;;;52.20;36.20;;;14.90;99.90;;;;;;5074478;28;20468;-66
2021/03/25 09:55:13;;;;;;;46.63;35.07;;;15.00;99.20;;;;;;5067279;28;20416;-66
2021/03/25 09:57:41;;;;;;;52.47;37.60;;;15.10;99.00;;;;;;5084073;28;20409;-66
2021/03/25 10:16:09;;;;;;;53.37;37.17;;;15.20;98.70;;;;;;5110779;27;20516;-65
2021/03/25 10:29:06;;;;;;;52.90;37.03;;;14.80;99.30;;;;;;5131434;27;20535;-65
2021/03/25 10:42:58;;;;;;;57.40;41.10;;;14.40;99.90;;;;;;5130421;27;20505;-65
2021/03/25 10:50:59;;;;;;;61.23;43.13;;;14.30;99.90;;;;;;5131437;27;20874;-65
2021/03/25 10:53:30;;;;;;;62.23;43.50;;;14.30;99.90;;;;;;5130137;28;20380;-65
2021/03/25 10:56:18;;;;;;;59.80;40.73;;;14.30;99.90;;;;;;5129975;28;20384;-65
2021/03/25 10:58:53;;;;;;;68.10;42.07;;;14.30;99.90;;;;;;5129891;28;20453;-65
2021/03/25 11:01:24;;;;;;;57.63;40.67;;;14.30;99.90;;;;;;5112666;28;20774;-65
2021/03/25 11:03:50;;;;;;;60.77;40.53;;;14.40;99.90;;;;;;5117586;28;20424;-65
2021/03/25 11:06:30;;;;;;;62.10;40.80;;;14.40;99.90;;;;;;5110498;28;20433;-65
2021/03/25 11:11:42;;;;;;;58.30;40.17;;;14.30;99.90;;;;;;5110899;27;20512;-66
2021/03/25 11:14:31;;;;;;;61.63;40.13;;;14.40;99.90;;;;;;5109490;28;20772;-66
2021/03/25 11:17:02;;;;;;;58.00;40.50;;;14.40;99.90;;;;;;5102953;28;20402;-66
2021/03/25 11:19:29;;;;;;;53.33;38.47;;;14.30;99.90;;;;;;5089397;28;20892;-66
2021/03/25 11:21:57;;;;;;;53.27;40.23;;;14.30;99.90;;;;;;5090414;28;20777;-66
2021/03/25 11:24:28;;;;;;;52.40;39.80;;;14.30;99.90;;;;;;5089307;28;20930;-66
2021/03/25 11:26:58;;;;;;;53.97;38.47;;;14.20;99.90;;;;;;5089150;28;20416;-66
2021/03/25 11:29:27;;;;;;;54.27;39.03;;;14.20;99.90;;;;;;5090480;28;20382;-66
2021/03/25 11:32:11;;;;;;;48.60;37.67;;;14.20;99.90;;;;;;5090054;28;20393;-66
2021/03/25 11:34:40;;;;;;;48.47;37.80;;;14.20;99.90;;;;;;5089640;28;20409;-66
2021/03/25 11:37:21;;;;;;;52.17;37.00;;;14.10;99.90;;;;;;5098645;28;20835;-66
2021/03/25 11:40:12;;;;;;;43.00;33.10;;;14.10;99.90;;;;;;5096683;28;20409;-66
2021/03/25 11:42:39;;;;;;;47.53;35.83;;;14.10;99.90;;;;;;5096115;28;20474;-66
2021/03/25 11:45:06;;;;;;;49.30;36.20;;;14.10;99.90;;;;;;5089882;28;20401;-66
2021/03/25 11:50:33;;;;;;;52.63;35.33;;;14.10;99.90;;;;;;5102830;27;20935;-66
2021/03/25 11:53:02;;;;;;;42.53;34.23;;;14.10;99.90;;;;;;5108375;28;20412;-67
2021/03/25 11:55:38;;;;;;;51.30;37.17;;;14.10;99.90;;;;;;5109338;28;20413;-67
2021/03/25 11:58:13;;;;;;;43.47;35.90;;;14.00;99.90;;;;;;5110243;28;20420;-67
2021/03/25 12:03:50;;;;;;;50.47;31.27;;;13.90;99.90;;;;;;5131241;27;20508;-65
2021/03/25 12:06:21;;;;;;;35.27;28.40;;;13.80;99.90;;;;;;5120081;28;20393;-65
2021/03/25 12:08:47;;;;;;;36.83;29.20;;;13.80;99.90;;;;;;5119918;28;20478;-65
2021/03/25 12:11:13;;;;;;;37.23;27.67;;;13.80;99.90;;;;;;5131440;28;20437;-65
2021/03/25 12:13:40;;;;;;;33.53;26.00;;;13.80;99.90;;;;;;5131399;27;20780;-66
2021/03/25 12:16:09;;;;;;;32.33;26.87;;;13.80;99.90;;;;;;5130165;28;20462;-65
2021/03/25 12:18:38;;;;;;;36.20;24.27;;;13.80;99.90;;;;;;5129597;27;20392;-65
2021/03/25 12:21:08;;;;;;;33.57;24.27;;;13.80;99.90;;;;;;5129952;28;20786;-65
2021/03/25 12:23:37;;;;;;;30.07;23.77;;;13.80;99.90;;;;;;5131273;27;20394;-65
2021/03/25 12:26:06;;;;;;;28.60;23.17;;;13.70;99.90;;;;;;5112722;28;20413;-65
2021/03/25 12:28:32;;;;;;;31.80;23.53;;;13.70;99.90;;;;;;5109344;28;20392;-65
2021/03/25 12:30:59;;;;;;;35.10;25.10;;;13.60;99.90;;;;;;5110499;28;20892;-65
2021/03/25 12:33:28;;;;;;;35.77;25.50;;;13.60;99.90;;;;;;5109371;28;20389;-65
2021/03/25 12:35:56;;;;;;;31.73;25.70;;;13.50;99.90;;;;;;5110441;28;20420;-65
2021/03/25 12:38:22;;;;;;;35.00;25.33;;;13.40;99.90;;;;;;5110351;28;20392;-65
2021/03/25 12:40:48;;;;;;;34.57;25.77;;;13.30;99.90;;;;;;5110413;28;20408;-65
2021/03/25 12:43:17;;;;;;;31.67;24.00;;;13.30;99.90;;;;;;5109939;28;20447;-66
2021/03/25 12:45:49;;;;;;;35.70;23.90;;;13.30;99.90;;;;;;5108815;28;20940;-65
2021/03/25 12:48:16;;;;;;;32.53;26.90;;;13.30;99.90;;;;;;5108974;28;20392;-65
2021/03/25 12:50:41;;;;;;;38.10;26.40;;;13.20;99.90;;;;;;5109043;28;20389;-66
2021/03/25 12:53:08;;;;;;;32.83;26.63;;;13.20;99.90;;;;;;5126122;28;20472;-65
2021/03/25 12:55:33;;;;;;;36.73;25.40;;;13.10;99.90;;;;;;5128548;27;20182;-65
2021/03/25 12:57:59;;;;;;;39.30;27.73;;;13.10;99.90;;;;;;5128311;27;20418;-65
2021/03/25 13:00:32;;;;;;;33.73;26.77;;;13.10;99.90;;;;;;5108243;27;20213;-65
2021/03/25 13:02:57;;;;;;;40.53;26.07;;;13.10;99.90;;;;;;5106360;28;20487;-65
2021/03/25 13:05:24;;;;;;;31.57;23.00;;;13.00;99.90;;;;;;5105192;28;20445;-65
2021/03/25 13:07:50;;;;;;;28.97;24.00;;;13.00;99.90;;;;;;5088491;28;20143;-65
2021/03/25 13:10:19;;;;;;;33.80;24.17;;;12.90;99.90;;;;;;5089568;28;20397;-65
2021/03/25 13:12:45;;;;;;;37.47;24.83;;;12.90;99.90;;;;;;5087787;28;20398;-65
2021/03/25 13:15:11;;;;;;;31.97;24.73;;;12.90;99.90;;;;;;5076653;28;20390;-65
2021/03/25 13:17:37;;;;;;;33.13;25.47;;;12.80;99.90;;;;;;5096259;28;20183;-65
2021/03/25 13:20:05;;;;;;;37.30;24.27;;;12.80;99.90;;;;;;5096063;28;20397;-66
2021/03/25 13:22:30;;;;;;;30.40;23.50;;;12.80;99.90;;;;;;5094533;28;20183;-66
2021/03/25 13:24:56;;;;;;;42.27;25.50;;;12.80;99.90;;;;;;5095388;28;20442;-66
2021/03/25 13:27:21;;;;;;;34.00;23.57;;;12.80;99.90;;;;;;5095645;28;20167;-66
2021/03/25 13:29:47;;;;;;;35.30;23.13;;;12.90;99.90;;;;;;5095970;28;20165;-66
2021/03/25 13:32:13;;;;;;;26.80;21.43;;;12.90;99.90;;;;;;5095397;28;20508;-66
2021/03/25 13:34:38;;;;;;;31.17;21.23;;;13.00;99.90;;;;;;5095511;28;20254;-66
2021/03/25 13:37:05;;;;;;;31.87;19.67;;;13.10;99.90;;;;;;5095495;28;20187;-66
2021/03/25 13:39:30;;;;;;;27.93;20.17;;;13.20;99.90;;;;;;5095465;28;20572;-66
2021/03/25 13:41:56;;;;;;;24.10;16.57;;;13.30;99.90;;;;;;5095578;28;20495;-66
2021/03/25 13:44:21;;;;;;;22.70;16.50;;;13.40;99.90;;;;;;5095477;28;20209;-66
2021/03/25 13:46:47;;;;;;;20.50;15.97;;;13.50;99.90;;;;;;5095160;28;20190;-66
2021/03/25 13:49:12;;;;;;;21.60;15.37;;;13.70;99.90;;;;;;5095342;28;20166;-66
2021/03/25 13:51:38;;;;;;;22.20;17.20;;;13.80;99.90;;;;;;5095174;28;20644;-66
2021/03/25 13:54:04;;;;;;;22.37;16.43;;;13.90;99.90;;;;;;5095149;28;20520;-66
2021/03/25 13:56:30;;;;;;;22.17;16.57;;;14.00;99.90;;;;;;5095280;28;20205;-66
2021/03/25 13:58:56;;;;;;;24.60;16.83;;;14.20;99.90;;;;;;5095095;28;20389;-66
2021/03/25 14:01:21;;;;;;;23.40;16.47;;;14.30;99.90;;;;;;5094822;28;20678;-66
2021/03/25 14:03:47;;;;;;;20.80;16.23;;;14.40;99.90;;;;;;5095239;28;20172;-66
2021/03/25 14:06:13;;;;;;;19.03;14.33;;;14.50;99.90;;;;;;5094660;28;20172;-66
2021/03/25 14:08:38;;;;;;;23.33;15.40;;;14.60;99.90;;;;;;5094946;28;20150;-66
2021/03/25 14:11:04;;;;;;;24.57;14.63;;;14.60;99.90;;;;;;5094991;28;20245;-66
2021/03/25 14:13:29;;;;;;;21.33;14.30;;;14.70;99.90;;;;;;5094866;28;20150;-66
2021/03/25 14:15:55;;;;;;;19.90;13.67;;;14.70;99.90;;;;;;5094737;28;20154;-66
2021/03/25 14:18:24;;;;;;;19.60;14.93;;;14.80;99.50;;;;;;5094659;28;20607;-66
2021/03/25 14:20:51;;;;;;;24.50;18.20;;;14.80;99.90;;;;;;5094690;28;20754;-66
2021/03/25 14:23:18;;;;;;;24.00;16.90;;;14.80;99.90;;;;;;5093490;28;20439;-66
2021/03/25 14:25:46;;;;;;;25.80;17.93;;;14.90;99.90;;;;;;5092351;28;20391;-66
2021/03/25 14:28:16;;;;;;;27.57;16.27;;;14.90;99.90;;;;;;5093041;28;20904;-66
2021/03/25 14:30:42;;;;;;;20.50;14.03;;;14.90;99.90;;;;;;5093430;28;20395;-66
2021/03/25 14:33:08;;;;;;;13.23;11.20;;;15.00;99.90;;;;;;5093293;28;20487;-66
2021/03/25 14:35:37;;;;;;;14.57;10.83;;;15.00;98.50;;;;;;5093248;28;20400;-65
2021/03/25 14:38:04;;;;;;;12.17;9.93;;;15.00;97.20;;;;;;5093511;28;20399;-66
2021/03/25 14:40:30;;;;;;;10.47;9.37;;;15.10;96.80;;;;;;5094377;28;20419;-66
2021/03/25 14:42:56;;;;;;;11.80;10.20;;;15.20;95.70;;;;;;5094196;28;20478;-66
2021/03/25 14:45:25;;;;;;;14.13;9.57;;;15.20;96.00;;;;;;5094071;28;20791;-66
2021/03/25 14:47:51;;;;;;;17.83;9.93;;;15.20;95.40;;;;;;5094096;28;20670;-66
2021/03/25 14:50:17;;;;;;;17.67;11.03;;;15.20;95.30;;;;;;5094211;28;20388;-66
2021/03/25 14:52:43;;;;;;;16.63;10.30;;;15.20;95.20;;;;;;5092820;28;20392;-66
2021/03/25 14:55:10;;;;;;;14.47;11.30;;;15.10;96.40;;;;;;5094362;28;20173;-66
2021/03/25 14:57:36;;;;;;;14.93;11.00;;;15.00;96.60;;;;;;5092871;28;20759;-67
2021/03/25 15:00:04;;;;;;;16.57;10.80;;;14.90;97.00;;;;;;5093866;28;20510;-67
2021/03/25 15:02:30;;;;;;;17.53;11.17;;;14.80;97.60;;;;;;5093693;28;20201;-66
2021/03/25 15:04:56;;;;;;;17.43;13.10;;;14.70;98.20;;;;;;5093929;28;20761;-66
2021/03/25 15:07:21;;;;;;;19.63;12.70;;;14.60;98.50;;;;;;5074317;28;20184;-66
2021/03/25 15:09:47;;;;;;;12.83;10.90;;;14.50;99.90;;;;;;5073485;28;20513;-66
2021/03/25 15:12:13;;;;;;;15.00;12.40;;;14.40;99.90;;;;;;5073625;28;20160;-66
2021/03/25 15:14:38;;;;;;;14.10;12.60;;;14.30;99.90;;;;;;5078516;28;20611;-66
2021/03/25 15:17:04;;;;;;;16.87;14.43;;;14.20;99.90;;;;;;5094058;28;20642;-66
2021/03/25 15:19:31;;;;;;;18.37;14.27;;;14.10;99.90;;;;;;5093577;28;20166;-66
2021/03/25 15:21:57;;;;;;;17.60;14.00;;;14.10;99.90;;;;;;5093715;28;20193;-65
2021/03/25 15:24:23;;;;;;;16.90;14.83;;;14.00;99.90;;;;;;5092305;28;20397;-66
2021/03/25 15:26:49;;;;;;;18.00;13.90;;;13.90;99.90;;;;;;5093396;28;20874;-66